• Join FlightAware (Why Join?)
  • Login
  • US Flag 
08:12PM EST


 

Airport Tracker/Info


-or-


 

Live Flight TrackerFlight Track Log ✈ UAL395 ✈ 09-Oct-2013 ✈ KEWR - KFLL

Flight Track Log - Related Links

Times and Time Zones

All times are in EDT time to prevent confusion due to time zone crossing. See the UAL395 flight status page for this flight to view local times or setup timezone preferences in your user account.

Time Position Orientation Groundspeed Altitude Reporting Facility
EDT Latitude Longitude Course Direction KTS MPH feet Rate Location/Type
03:12PM 40.7333 -74.1167 210° Southwest 197 227 2,400  Level New York TRACON
03:13PM 40.7833 -74.1333 346° North 261 300 4,600 1,920 Climbing New York TRACON
03:14PM 40.3599 -74.3326 194° South  Level Estimated
03:14PM 40.7500 -74.2167 242° Southwest 300 345 6,300  Level New York TRACON
03:15PM 40.2489 -74.3869 180° South  Level Estimated
03:15PM 40.6667 -74.2333 189° South 286 329 10,300  Level New York TRACON
03:16PM 40.1380 -74.4411 224° Southwest  Level Estimated
03:17PM 40.0270 -74.4950 210° Southwest  Level Estimated
03:17PM 40.5133 -74.3633 213° Southwest 328 377 14,600  Level New York Center
03:18PM 40.4322 -74.2856 144° Southeast 317 365 17,000 1,920 Climbing New York Center
03:20PM 40.2156 -74.1733 158° South 350 403 21,300 1,740 Climbing Washington Center
03:21PM 40.1075 -74.2056 193° South 373 429 23,200 1,440 Climbing Washington Center
03:22PM 40.0169 -74.2886 215° Southwest 373 429 24,300 1,140 Climbing Washington Center
03:23PM 39.9303 -74.3903 222° Southwest 396 456 25,500 1,080 Climbing Washington Center
03:24PM 39.8356 -74.5000 222° Southwest 413 475 26,500 1,080 Climbing Washington Center
03:25PM 39.7408 -74.6067 221° Southwest 431 496 27,700 1,200 Climbing Washington Center
03:26PM 39.6478 -74.7131 221° Southwest 443 510 28,900 1,140 Climbing Washington Center
03:27PM 39.5569 -74.8192 222° Southwest 443 510 30,000 1,080 Climbing Washington Center
03:28PM 39.4636 -74.9250 221° Southwest 448 516 31,100 1,080 Climbing Washington Center
03:29PM 39.3706 -75.0331 222° Southwest 448 516 32,200 1,200 Climbing Washington Center
03:30PM 39.2731 -75.1225 215° Southwest 448 516 33,600 1,500 Climbing Washington Center
03:31PM 39.1628 -75.1714 199° South 433 498 35,200 1,140 Climbing Washington Center
03:32PM 39.0544 -75.2200 199° South 418 481 35,900 300 Climbing Washington Center
03:33PM 38.9483 -75.2606 197° South 412 474 35,900  Level Washington Center
03:34PM 38.8419 -75.3064 199° South 407 468 35,900  Level Washington Center
03:35PM 38.7336 -75.3469 196° South 407 468 35,900  Level Washington Center
03:36PM 38.6275 -75.3922 198° South 402 463 35,900  Level Washington Center
03:37PM 38.5211 -75.4458 202° Southwest 402 463 36,000  Climbing Washington Center
03:38PM 38.4211 -75.5069 206° Southwest 408 470 36,000 -60 Level Washington Center
03:39PM 38.3211 -75.5653 205° Southwest 403 464 35,900 -60 Descending Washington Center
03:40PM 38.2211 -75.6261 206° Southwest 403 464 35,900  Level Washington Center
03:41PM 38.1231 -75.6894 207° Southwest 403 464 36,000  Climbing Washington Center
03:42PM 38.0208 -75.7578 208° Southwest 403 464 36,000  Level Washington Center
03:43PM 37.9186 -75.8181 205° Southwest 408 470 36,000  Level Washington Center
03:44PM 37.8119 -75.8756 203° Southwest 413 475 36,000  Level Washington Center
03:45PM 37.7117 -75.9436 208° Southwest 413 475 36,000 -60 Level Washington Center
03:46PM 37.6072 -76.0061 205° Southwest 413 475 35,900 -60 Descending Washington Center
03:47PM 37.5069 -76.0683 206° Southwest 408 470 35,900  Level Washington Center
03:48PM 37.4022 -76.1303 205° Southwest 408 470 35,900  Level Washington Center
03:49PM 37.2917 -76.1897 203° Southwest 419 482 36,000  Climbing Washington Center
03:50PM 37.1869 -76.2514 205° Southwest 419 482 36,000  Level Washington Center
03:51PM 37.0822 -76.3131 205° Southwest 419 482 36,000  Level Washington Center
03:52PM 36.9756 -76.3769 206° Southwest 424 488 36,000  Level Washington Center
03:53PM 36.8686 -76.4408 206° Southwest 424 488 36,000  Level Washington Center
03:54PM 36.7597 -76.5019 204° Southwest 424 488 36,000 -60 Level Washington Center
03:55PM 36.6675 -76.5578 206° Southwest 424 488 35,900 -60 Descending Washington Center
03:56PM 36.5567 -76.6031 198° South 419 482 35,900  Level Washington Center
03:57PM 36.4478 -76.6481 198° South 419 482 35,900  Level Washington Center
03:58PM 36.3344 -76.6956 199° South 419 482 36,000  Climbing Washington Center
03:59PM 36.2256 -76.7403 198° South 419 482 35,900 -60 Descending Washington Center
04:00PM 36.1167 -76.7850 198° South 424 488 35,900  Level Washington Center
04:01PM 36.0058 -76.8294 198° South 424 488 35,900  Level Washington Center
04:02PM 35.8947 -76.8739 198° South 424 488 35,900  Level Washington Center
04:03PM 35.7836 -76.9208 199° South 424 488 35,900  Level Washington Center
04:04PM 35.6767 -76.9678 200° South 424 488 35,900  Level Washington Center
04:05PM 35.5697 -77.0092 197° South 417 480 36,000  Climbing Washington Center
04:06PM 35.4586 -77.0533 198° South 417 480 36,000  Level Washington Center
04:07PM 35.3494 -77.0997 199° South 417 480 36,000  Level Washington Center
04:08PM 35.2406 -77.1433 198° South 417 480 36,000  Level Washington Center
04:09PM 35.1314 -77.1894 199° South 417 480 36,000  Level Washington Center
04:10PM 35.0181 -77.2331 197° South 422 486 36,000  Level Washington Center
04:11PM 34.9111 -77.2764 198° South 422 486 36,000  Level Washington Center
04:12PM 34.7997 -77.3222 199° South 422 486 36,000 -60 Level Washington Center
04:13PM 34.6928 -77.3678 199° South 422 486 35,900 -60 Descending Washington Center
04:14PM 34.5836 -77.4108 198° South 422 486 35,900  Level Washington Center
04:15PM 34.4722 -77.4564 199° South 417 480 35,900  Level Washington Center
04:16PM 34.3631 -77.5017 199° South 417 480 35,900  Level Washington Center
04:17PM 34.2519 -77.5417 197° South 422 486 36,000  Climbing Washington Center
04:18PM 34.1406 -77.5842 198° South 422 486 35,900 -60 Descending Washington Center
04:19PM 34.0208 -77.6314 198° South 427 491 35,900  Level Washington Center
04:20PM 33.9075 -77.6736 197° South 427 491 35,900  Level Washington Center
04:22PM 33.7808 -77.7281 200° South 435 501 36,000  Climbing Jacksonville Center
04:23PM 33.6697 -77.7669 196° South 424 488 36,000 -60 Level Jacksonville Center
04:24PM 33.5589 -77.8133 199° South 424 488 35,900 -60 Descending Jacksonville Center
04:25PM 33.4500 -77.8569 198° South 419 482 35,900  Level Jacksonville Center
04:27PM 33.2178 -77.9469 198° South 419 482 35,900  Level Jacksonville Center
04:28PM 33.1089 -77.9903 198° South 419 482 36,000  Climbing Jacksonville Center
04:29PM 32.9978 -78.0308 197° South 419 482 36,000 -60 Level Jacksonville Center
04:30PM 32.8867 -78.0717 197° South 419 482 35,900 -60 Descending Jacksonville Center
04:31PM 32.7778 -78.1169 199° South 419 482 35,900  Level Jacksonville Center
04:32PM 32.6664 -78.1547 196° South 419 482 35,900  Level Jacksonville Center
04:33PM 32.5556 -78.2025 200° South 419 482 35,900  Level Jacksonville Center
04:34PM 32.4464 -78.2428 197° South 419 482 36,000  Climbing Jacksonville Center
04:35PM 32.3353 -78.2853 198° South 419 482 35,900 -60 Descending Jacksonville Center
04:36PM 32.2222 -78.3303 199° South 419 482 35,900  Level Jacksonville Center
04:37PM 32.1108 -78.3725 198° South 419 482 36,000  Climbing Jacksonville Center
04:38PM 32.0039 -78.4119 197° South 419 482 35,900 -60 Descending Jacksonville Center
04:39PM 31.8906 -78.4567 199° South 419 482 35,900  Level Jacksonville Center
04:40PM 31.7875 -78.4908 196° South 414 476 35,900  Level Jacksonville Center
04:41PM 31.6783 -78.5353 199° South 414 476 35,900  Level Jacksonville Center
04:42PM 31.5669 -78.5769 198° South 419 482 35,900  Level Jacksonville Center
04:43PM 31.4575 -78.6136 196° South 412 474 35,900  Level Jacksonville Center
04:44PM 31.3506 -78.6550 198° South 413 475 35,900  Level Jacksonville Center
04:45PM 31.2411 -78.6942 197° South 415 478 35,900  Level Jacksonville Center
04:46PM 31.1300 -78.7403 200° South 415 478 35,900  Level Jacksonville Center
04:47PM 31.0225 -78.7764 196° South 420 483 35,900  Level Jacksonville Center
04:48PM 30.9236 -78.8122 197° South 415 478 35,900  Level Jacksonville Center
04:49PM 30.8161 -78.8533 198° South 415 478 35,900  Level Jacksonville Center
04:50PM 30.7047 -78.8942 197° South 415 478 35,900  Level Jacksonville Center
04:51PM 30.5464 -78.9506 197° South 407 468 36,000  Climbing Miami Center
04:52PM 30.4417 -78.9894 198° South 401 461 36,000 -60 Level Miami Center
04:53PM 30.3286 -79.0231 194° South 416 479 35,900 -60 Descending Miami Center
04:54PM 30.2114 -79.0519 192° South 421 484 35,900  Level Miami Center
04:55PM 30.0964 -79.0808 192° South 414 476 35,900  Level Miami Center
04:56PM 29.9894 -79.1122 194° South 414 476 36,000  Climbing Miami Center
04:57PM 29.8786 -79.1408 193° South 414 476 36,000 -300 Level Miami Center
04:58PM 29.7717 -79.1744 195° South 414 476 35,500 -780 Descending Miami Center
04:59PM 29.6564 -79.2006 191° South 414 476 34,500 -1,020 Descending Miami Center
05:00PM 29.5433 -79.2269 191° South 414 476 33,500 -1,020 Descending Miami Center
05:01PM 29.4325 -79.2553 193° South 414 476 32,500 -780 Descending Miami Center
05:02PM 29.3256 -79.2839 193° South 409 471 32,000 -300 Descending Miami Center
05:03PM 29.2125 -79.3100 191° South 414 476 32,000  Level Miami Center
05:04PM 29.1036 -79.3361 192° South 414 476 32,000  Level Miami Center
05:05PM 28.9925 -79.3644 193° South 414 476 32,000  Level Miami Center
05:06PM 28.8833 -79.3928 193° South 409 471 32,000  Level Miami Center
05:07PM 28.7619 -79.4208 191° South 414 476 32,000  Level Miami Center
05:08PM 28.6531 -79.4492 193° South 414 476 32,000  Level Miami Center
05:09PM 28.5439 -79.4772 193° South 414 476 32,000  Level Miami Center
05:10PM 28.4328 -79.5031 192° South 414 476 32,000  Level Miami Center
05:11PM 28.3239 -79.5289 192° South 414 476 32,000  Level Miami Center
05:12PM 28.2128 -79.5567 192° South 414 476 32,000  Level Miami Center
05:13PM 28.1036 -79.5847 193° South 414 476 32,000  Level Miami Center
05:14PM 27.9944 -79.6103 192° South 414 476 32,000  Level Miami Center
05:15PM 27.8856 -79.6383 193° South 414 476 32,000  Level Miami Center
05:16PM 27.7786 -79.6639 192° South 409 471 32,000 -300 Level Miami Center
05:17PM 27.6653 -79.6892 191° South 409 471 31,500 -1,080 Descending Miami Center
05:18PM 27.5625 -79.7125 191° South 420 483 29,900 -1,920 Descending Miami Center
05:19PM 27.4408 -79.7375 190° South 430 495 27,700 -1,920 Descending Miami Center
05:20PM 27.3075 -79.7294 177° South 430 495 26,100 -2,100 Descending Miami Center
05:21PM 27.1886 -79.7194 176° South 435 501 23,500 -2,520 Descending Miami Center
05:22PM 27.0719 -79.7097 176° South 435 501 21,100 -2,400 Descending Miami Center
05:23PM 26.9675 -79.7025 176° South 424 488 18,700 -2,640 Descending Miami Center
05:24PM 26.8550 -79.6975 178° South 412 474 15,900 -2,580 Descending Miami Center
05:25PM 26.7350 -79.7342 195° South 407 468 13,600 -2,340 Descending Miami Center
05:26PM 26.6383 -79.7689 198° South 365 420 11,400 -2,040 Descending Miami Center
05:26PM 26.6467 -79.7644 25° Northeast 385 443 11,600 -1,440 Climbing Miami Center
05:27PM 26.5417 -79.7989 196° South 369 425 9,900 -1,560 Descending Miami Center
05:27PM 26.5144 -79.8075 196° South 315 362 9,600 -1,320 Descending Miami Center
05:28PM 26.4661 -79.8225 196° South 339 390 8,600 -1,620 Descending Miami Center
05:28PM 26.4303 -79.8356 198° South 309 356 8,000 -600 Descending Miami Center
05:29PM 26.3817 -79.8600 204° Southwest 307 353 8,000 -240 Level Miami Center
05:29PM 26.3625 -79.8781 220° Southwest 288 331 7,800 -1,140 Descending Miami Center
05:30PM 26.3283 -79.9119 222° Southwest 291 335 6,900 -1,560 Descending Miami Center
05:31PM 26.2942 -79.9458 222° Southwest 287 330 6,100 -900 Descending Miami Center
05:31PM 26.2603 -79.9750 218° Southwest 291 335 6,000 -120 Descending Miami Center
05:32PM 26.2325 -80.0044 224° Southwest 283 326 6,000  Level Miami Center
05:32PM 26.2089 -80.0269 221° Southwest 286 329 6,000 -120 Level Miami Center
05:33PM 26.1769 -80.0631 225° Southwest 282 325 5,900  Descending Miami Center
05:33PM 26.1656 -80.0953 249° West 281 323 6,000 -300 Climbing Miami Center
05:34PM 26.1564 -80.1389 257° West 233 268 5,600 -840 Descending Miami Center
05:34PM 26.1578 -80.1667 273° West 255 293 5,200 -1,200 Descending Miami Center
05:35PM 26.1733 -80.2158 289° West 230 265 4,300 -1,200 Descending Miami Center
05:35PM 26.1792 -80.2322 292° West 233 268 4,000 -360 Descending Miami Center
05:36PM 26.1825 -80.2786 275° West 231 266 4,000  Level Miami Center
05:37PM 26.1744 -80.3500 263° West 228 262 4,000 -420 Level Miami Center
05:38PM 26.1072 -80.3667 193° South 232 267 3,200 -780 Descending Miami Center
05:39PM 26.0744 -80.3356 140° Southeast 182 209 2,500 -660 Descending Miami Center
05:40PM 26.0736 -80.2822 91° East 172 198 2,000 -720 Descending Miami Center
05:41PM 26.0747 -80.2339 89° East 135 155 1,100 -840 Descending Miami Center
05:42PM 26.0739 -80.1853 91° East 145 167 300 -720 Descending Miami Center